Time;durP1;ratioP1;P1;durP2;ratioP2;P2;SDS_P1;SDS_P2;PMS_P1;PMS_P2;Temp;Humidity;BMP_temperature;BMP_pressure;BME280_temperature;BME280_humidity;BME280_pressure;Samples;Min_cycle;Max_cycle;Signal;HPM_P1;HPM_P2
2022/11/07 00:00:29;;;;;;;30.33;19.13;;;;;;;9.34;73.37;98501.53;5092798;28;20020;-69
2022/11/07 00:02:55;;;;;;;37.67;22.90;;;;;;;9.35;73.83;98506.72;5092068;28;20028;-68
2022/11/07 00:05:21;;;;;;;37.22;23.20;;;;;;;9.34;74.02;98490.56;5093403;28;20028;-69
2022/11/07 00:07:46;;;;;;;30.00;19.60;;;;;;;9.33;73.92;98500.72;5092962;28;20035;-68
2022/11/07 00:10:11;;;;;;;30.63;19.17;;;;;;;9.33;73.65;98499.88;5093075;28;20050;-69
2022/11/07 00:12:37;;;;;;;29.13;18.00;;;;;;;9.33;73.61;98497.16;5092297;28;20028;-68
2022/11/07 00:15:04;;;;;;;25.63;17.15;;;;;;;9.34;73.42;98499.63;5093029;28;20027;-68
2022/11/07 00:17:30;;;;;;;29.20;17.35;;;;;;;9.37;73.54;98496.28;5092572;28;20464;-68
2022/11/07 00:19:55;;;;;;;34.22;18.67;;;;;;;9.38;73.61;98486.97;5092749;28;20020;-71
2022/11/07 00:22:20;;;;;;;35.13;18.25;;;;;;;9.40;73.83;98500.38;5092441;28;20024;-68
2022/11/07 00:24:46;;;;;;;35.85;19.40;;;;;;;9.37;73.59;98485.31;5092543;28;20146;-69
2022/11/07 00:27:11;;;;;;;30.33;17.15;;;;;;;9.34;73.27;98472.25;5076432;28;20503;-68
2022/11/07 00:29:37;;;;;;;24.77;14.75;;;;;;;9.32;73.34;98471.72;5072028;28;20017;-69
2022/11/07 00:32:02;;;;;;;32.40;18.63;;;;;;;9.32;73.43;98479.09;5054722;28;20559;-68
2022/11/07 00:34:27;;;;;;;37.20;18.92;;;;;;;9.32;73.99;98470.88;5071840;28;20028;-69
2022/11/07 00:36:53;;;;;;;28.92;17.33;;;;;;;9.31;73.30;98477.47;5071773;28;20089;-69
2022/11/07 00:39:18;;;;;;;38.88;20.65;;;;;;;9.32;73.67;98473.63;5054277;28;20025;-70
2022/11/07 00:41:46;;;;;;;28.77;17.10;;;;;;;9.30;73.86;98476.66;5072158;28;20108;-69
2022/11/07 00:44:11;;;;;;;26.33;16.52;;;;;;;9.30;73.21;98479.41;5071634;28;20025;-69
2022/11/07 00:46:37;;;;;;;33.20;17.95;;;;;;;9.28;73.71;98467.91;5053626;28;20028;-68
2022/11/07 00:49:02;;;;;;;31.15;18.77;;;;;;;9.27;73.73;98477.22;5071663;28;20428;-68
2022/11/07 00:51:28;;;;;;;37.08;20.55;;;;;;;9.26;73.29;98472.84;5071802;28;20521;-68
2022/11/07 00:53:53;;;;;;;41.13;22.77;;;;;;;9.26;73.99;98474.75;5071382;28;20027;-68
2022/11/07 00:56:22;;;;;;;41.60;21.73;;;;;;;9.26;73.87;98482.97;5054117;28;20032;-69
2022/11/07 00:58:47;;;;;;;35.45;19.00;;;;;;;9.24;73.59;98478.59;5071368;28;20456;-69
2022/11/07 01:01:15;;;;;;;30.60;18.15;;;;;;;9.24;73.80;98469.59;5071821;28;20082;-68
2022/11/07 01:06:27;;;;;;;43.28;22.38;;;;;;;9.28;73.71;98473.38;5069304;28;20520;-68
2022/11/07 01:08:53;;;;;;;37.72;21.40;;;;;;;9.29;73.43;98475.03;5071137;28;20464;-68
2022/11/07 01:11:20;;;;;;;35.10;19.88;;;;;;;9.28;74.10;98467.91;5071419;28;20025;-69
2022/11/07 01:13:45;;;;;;;31.13;18.10;;;;;;;9.31;73.73;98469.25;5071198;28;20040;-69
2022/11/07 01:16:11;;;;;;;33.58;19.30;;;;;;;9.33;74.20;98465.13;5053453;28;20028;-68
2022/11/07 01:18:36;;;;;;;33.05;18.98;;;;;;;9.34;73.74;98474.16;5071292;28;20052;-68
2022/11/07 01:21:07;;;;;;;30.48;18.52;;;;;;;9.33;73.60;98476.09;5071706;28;20016;-69
2022/11/07 01:23:32;;;;;;;35.30;20.70;;;;;;;9.33;73.66;98467.03;5071431;28;20111;-69
2022/11/07 01:26:06;;;;;;;31.95;18.50;;;;;;;9.32;73.35;98455.28;5070902;28;20103;-68
2022/11/07 01:28:33;;;;;;;28.60;17.02;;;;;;;9.31;74.16;98461.88;5052842;28;20439;-69
2022/11/07 01:31:02;;;;;;;31.40;17.80;;;;;;;9.30;73.54;98456.66;5071475;28;20039;-69
2022/11/07 01:33:27;;;;;;;38.20;21.02;;;;;;;9.29;73.31;98468.72;5071399;28;20020;-69
2022/11/07 01:35:52;;;;;;;39.85;22.10;;;;;;;9.31;74.13;98469.25;5071361;28;20101;-69
2022/11/07 01:38:18;;;;;;;38.55;21.42;;;;;;;9.30;73.96;98462.13;5071097;28;20055;-69
2022/11/07 01:44:22;;;;;;;40.00;21.80;;;;;;;9.28;74.15;98467.09;5071393;28;20079;-68
2022/11/07 01:46:49;;;;;;;40.10;21.88;;;;;;;9.31;74.02;98458.28;5029238;28;20045;-68
2022/11/07 01:49:23;;;;;;;35.55;20.42;;;;;;;9.29;74.18;98457.78;5070239;28;20028;-68
2022/11/07 01:51:54;;;;;;;31.90;19.60;;;;;;;9.27;73.52;98447.13;5070850;28;20028;-68
2022/11/07 01:54:25;;;;;;;35.45;20.10;;;;;;;9.26;73.43;98442.75;5071145;28;20127;-69
2022/11/07 01:56:52;;;;;;;32.95;19.40;;;;;;;9.24;73.87;98440.28;5070757;28;20028;-68
2022/11/07 01:59:22;;;;;;;29.63;19.38;;;;;;;9.24;73.72;98434.00;5070828;28;20020;-68
2022/11/07 02:01:48;;;;;;;32.47;18.75;;;;;;;9.26;73.77;98433.72;5071272;28;20028;-69
2022/11/07 02:04:15;;;;;;;31.25;19.42;;;;;;;9.26;73.44;98440.00;5071709;28;20027;-68
2022/11/07 02:06:59;;;;;;;36.08;19.30;;;;;;;9.27;73.55;98427.13;5071190;28;20035;-68
2022/11/07 02:09:25;;;;;;;31.85;18.52;;;;;;;9.23;73.95;98433.19;5069667;28;20028;-69
2022/11/07 02:11:50;;;;;;;35.85;21.27;;;;;;;9.24;73.74;98429.34;5071537;28;20074;-69
2022/11/07 02:14:17;;;;;;;36.22;23.38;;;;;;;9.26;73.71;98430.97;5071099;28;20024;-68
2022/11/07 02:16:44;;;;;;;35.38;23.50;;;;;;;9.23;73.81;98430.44;5071379;28;20465;-68
2022/11/07 02:19:24;;;;;;;32.95;20.40;;;;;;;9.21;73.85;98429.91;5071385;28;20028;-68
2022/11/07 02:22:02;;;;;;;29.95;19.40;;;;;;;9.24;73.75;98428.53;5053346;28;20431;-69
2022/11/07 02:24:37;;;;;;;30.38;20.00;;;;;;;9.22;73.74;98426.06;5071497;28;20029;-69
2022/11/07 02:27:07;;;;;;;33.90;20.25;;;;;;;9.23;73.75;98433.19;5070515;28;20115;-69
2022/11/07 02:29:35;;;;;;;28.60;17.40;;;;;;;9.24;73.96;98429.34;5071531;28;20020;-69
2022/11/07 02:32:02;;;;;;;33.47;21.08;;;;;;;9.27;74.11;98427.13;5071504;28;20025;-69
2022/11/07 02:34:28;;;;;;;35.10;21.00;;;;;;;9.28;74.10;98413.19;5053499;28;20062;-69
2022/11/07 02:36:53;;;;;;;30.17;18.83;;;;;;;9.27;73.86;98416.19;5071760;28;20082;-69
2022/11/07 02:39:19;;;;;;;34.00;18.58;;;;;;;9.27;74.47;98414.28;5071104;28;20430;-69
2022/11/07 02:41:46;;;;;;;28.50;17.73;;;;;;;9.27;74.63;98406.06;5070816;28;20040;-68
2022/11/07 02:44:12;;;;;;;32.97;18.65;;;;;;;9.28;74.13;98407.69;5070527;28;20047;-68
2022/11/07 02:46:39;;;;;;;38.15;20.63;;;;;;;9.25;73.76;98397.34;5070693;28;20460;-69
2022/11/07 02:49:04;;;;;;;30.50;18.45;;;;;;;9.23;74.21;98405.81;5070266;28;20025;-69
2022/11/07 02:51:30;;;;;;;35.58;19.60;;;;;;;9.27;74.37;98399.75;5070974;28;20038;-68
2022/11/07 02:53:55;;;;;;;31.67;19.17;;;;;;;9.26;73.95;98384.44;5070941;28;20093;-69
2022/11/07 02:56:21;;;;;;;28.30;17.70;;;;;;;9.20;74.00;98387.22;5071162;28;20059;-68
2022/11/07 02:58:46;;;;;;;28.45;16.77;;;;;;;9.19;74.04;98398.47;5070422;28;20025;-69
2022/11/07 03:01:13;;;;;;;32.10;18.27;;;;;;;9.14;73.91;98395.78;5075091;28;20111;-68
2022/11/07 03:03:41;;;;;;;29.70;18.05;;;;;;;9.12;74.03;98390.63;5074877;28;20020;-69
2022/11/07 03:06:09;;;;;;;28.48;17.23;;;;;;;9.11;73.82;98386.25;5075165;28;20027;-68
2022/11/07 03:08:35;;;;;;;30.00;17.13;;;;;;;9.12;74.54;98387.88;5071977;28;20394;-68
2022/11/07 03:11:01;;;;;;;30.88;17.60;;;;;;;9.11;74.12;98391.72;5074680;28;20556;-68
2022/11/07 03:13:26;;;;;;;29.05;17.48;;;;;;;9.12;74.06;98390.63;5073264;28;20547;-68
2022/11/07 03:15:52;;;;;;;30.80;17.60;;;;;;;9.14;74.26;98388.41;5056977;28;20032;-68
2022/11/07 03:18:18;;;;;;;31.35;18.20;;;;;;;9.17;74.09;98396.03;5074385;28;20027;-69
2022/11/07 03:20:43;;;;;;;30.63;18.42;;;;;;;9.17;74.71;98389.75;5074251;28;20017;-68
2022/11/07 03:23:09;;;;;;;31.40;18.92;;;;;;;9.16;74.36;98394.41;5074183;28;20084;-68
2022/11/07 03:25:34;;;;;;;31.10;18.38;;;;;;;9.13;73.71;98388.69;5074219;28;20013;-69
2022/11/07 03:28:00;;;;;;;38.55;19.92;;;;;;;9.11;73.94;98386.25;5073842;28;20046;-69
2022/11/07 03:30:25;;;;;;;35.58;19.80;;;;;;;9.07;74.52;98391.47;5073266;28;20032;-68
2022/11/07 03:32:52;;;;;;;31.50;19.13;;;;;;;9.05;73.77;98392.88;5073763;28;20024;-69
2022/11/07 03:35:17;;;;;;;31.98;19.27;;;;;;;9.02;74.17;98386.03;5074124;28;20037;-68
2022/11/07 03:37:47;;;;;;;35.17;19.67;;;;;;;9.03;74.48;98378.66;5072913;28;20034;-69
2022/11/07 03:40:13;;;;;;;32.67;19.35;;;;;;;9.03;74.50;98384.13;5071700;28;20480;-68
2022/11/07 03:42:40;;;;;;;30.67;18.13;;;;;;;9.02;74.08;98377.84;5074136;28;20032;-68
2022/11/07 03:45:07;;;;;;;32.58;19.38;;;;;;;8.99;74.21;98383.88;5074336;28;20035;-68
2022/11/07 03:47:34;;;;;;;30.90;17.38;;;;;;;8.96;74.26;98386.38;5070291;28;20127;-68
2022/11/07 03:50:00;;;;;;;29.83;17.38;;;;;;;8.94;74.42;98387.50;5073501;28;20024;-68
2022/11/07 03:52:25;;;;;;;35.15;19.02;;;;;;;8.92;74.18;98372.47;5074255;28;20035;-68
2022/11/07 03:54:50;;;;;;;31.10;17.38;;;;;;;8.88;74.54;98372.22;5074405;28;20025;-68
2022/11/07 03:57:16;;;;;;;30.10;17.73;;;;;;;8.86;73.65;98384.56;5073815;28;20103;-69
2022/11/07 03:59:41;;;;;;;32.60;17.77;;;;;;;8.83;73.93;98385.13;5073580;28;20380;-68
2022/11/07 04:02:06;;;;;;;31.33;16.88;;;;;;;8.79;73.50;98388.44;5073587;28;20029;-69
2022/11/07 04:04:32;;;;;;;31.05;17.25;;;;;;;8.76;73.56;98385.47;5073869;28;20024;-68
2022/11/07 04:06:57;;;;;;;28.98;16.80;;;;;;;8.74;73.85;98382.22;5055844;28;20104;-68
2022/11/07 04:09:22;;;;;;;28.40;16.83;;;;;;;8.72;73.80;98390.69;5073542;28;20476;-69
2022/11/07 04:17:19;;;;;;;32.00;16.85;;;;;;;8.70;73.60;98390.16;5070817;28;20044;-69
2022/11/07 04:19:55;;;;;;;32.58;16.85;;;;;;;8.66;73.90;98393.75;5073419;28;20024;-69
2022/11/07 04:22:22;;;;;;;30.75;17.75;;;;;;;8.63;74.03;98390.47;5072800;28;20032;-69
2022/11/07 04:24:48;;;;;;;33.42;17.67;;;;;;;8.61;74.21;98391.84;5073536;28;20029;-69
2022/11/07 04:30:17;;;;;;;30.05;16.67;;;;;;;8.57;74.05;98383.41;5073451;28;20128;-68
2022/11/07 04:32:43;;;;;;;34.50;19.48;;;;;;;8.56;74.12;98389.19;5069035;28;20451;-69
2022/11/07 04:35:09;;;;;;;36.47;19.73;;;;;;;8.55;74.38;98391.09;5073257;28;20434;-68
2022/11/07 04:37:34;;;;;;;38.50;20.45;;;;;;;8.55;74.25;98395.75;5073235;28;20024;-69
2022/11/07 04:39:59;;;;;;;39.47;20.00;;;;;;;8.52;74.46;98388.91;5072873;28;20286;-68
2022/11/07 04:42:25;;;;;;;38.55;21.40;;;;;;;8.51;73.86;98411.88;5054484;28;20115;-68
2022/11/07 04:44:50;;;;;;;40.63;22.13;;;;;;;8.49;74.15;98414.91;5073145;28;20024;-68
2022/11/07 04:47:15;;;;;;;35.58;19.17;;;;;;;8.50;73.78;98410.25;5073152;28;20238;-69
2022/11/07 04:49:41;;;;;;;35.20;19.05;;;;;;;8.46;74.40;98409.97;5072653;28;20029;-68
2022/11/07 04:52:06;;;;;;;30.92;17.60;;;;;;;8.44;74.36;98414.91;5072409;28;20031;-69
2022/11/07 04:54:31;;;;;;;27.38;16.45;;;;;;;8.44;74.08;98422.28;5072592;28;20384;-69
2022/11/07 04:56:57;;;;;;;32.38;17.35;;;;;;;8.46;74.31;98429.13;5072921;28;20108;-69
2022/11/07 04:59:24;;;;;;;31.00;17.33;;;;;;;8.45;74.74;98421.19;5072885;28;20031;-68
2022/11/07 05:01:49;;;;;;;30.63;16.75;;;;;;;8.47;74.30;98416.25;5068608;28;20024;-69
2022/11/07 05:04:14;;;;;;;30.38;17.23;;;;;;;8.48;74.80;98415.16;5072730;28;20036;-68
2022/11/07 05:06:40;;;;;;;30.40;16.25;;;;;;;8.51;74.72;98422.00;5072876;28;20017;-68
2022/11/07 05:09:08;;;;;;;26.17;15.00;;;;;;;8.49;74.80;98431.31;5038087;28;20028;-68
2022/11/07 05:11:33;;;;;;;28.13;15.27;;;;;;;8.51;75.18;98432.94;5072936;28;20020;-68
2022/11/07 05:13:59;;;;;;;26.70;15.63;;;;;;;8.50;75.02;98429.38;5054300;28;20032;-68
2022/11/07 05:16:24;;;;;;;25.25;13.52;;;;;;;8.52;75.88;98432.66;5054501;28;20103;-68
2022/11/07 05:18:50;;;;;;;24.65;13.68;;;;;;;8.52;75.58;98429.13;5072341;28;20032;-68
2022/11/07 05:21:15;;;;;;;22.75;13.23;;;;;;;8.52;75.65;98437.31;5072554;28;20028;-68
2022/11/07 05:23:40;;;;;;;22.52;13.32;;;;;;;8.51;75.18;98433.75;5071835;28;20028;-69
2022/11/07 05:26:05;;;;;;;26.60;13.77;;;;;;;8.51;75.53;98431.03;5071757;28;20459;-69
2022/11/07 05:28:32;;;;;;;29.88;15.15;;;;;;;8.54;74.78;98435.13;5072306;28;20032;-69
2022/11/07 05:31:02;;;;;;;22.90;13.23;;;;;;;8.53;75.53;98431.56;5072228;28;20040;-68
2022/11/07 05:33:28;;;;;;;23.50;12.38;;;;;;;8.55;76.17;98432.09;5067686;28;20032;-68
2022/11/07 05:35:53;;;;;;;20.60;12.48;;;;;;;8.55;75.91;98434.03;5071732;28;20392;-68
2022/11/07 05:38:19;;;;;;;21.13;11.20;;;;;;;8.56;75.68;98438.38;5071837;28;20075;-68
2022/11/07 05:40:44;;;;;;;20.13;11.45;;;;;;;8.58;75.86;98436.16;5071937;28;20025;-68
2022/11/07 05:43:13;;;;;;;20.58;11.98;;;;;;;8.59;75.57;98443.25;5071498;28;20020;-68
2022/11/07 05:45:40;;;;;;;20.00;10.50;;;;;;;8.60;75.80;98443.00;5071887;28;20020;-68
2022/11/07 05:48:07;;;;;;;20.17;11.52;;;;;;;8.59;76.30;98443.25;5053961;28;20464;-68
2022/11/07 05:50:34;;;;;;;23.35;13.52;;;;;;;8.60;76.14;98440.25;5071904;28;20028;-68
2022/11/07 05:52:59;;;;;;;79.63;30.25;;;;;;;8.59;76.40;98438.63;5071438;28;20032;-68
2022/11/07 05:55:25;;;;;;;91.43;34.15;;;;;;;8.61;76.15;98444.63;5071213;28;20033;-68
2022/11/07 05:57:51;;;;;;;31.83;16.75;;;;;;;8.61;76.16;98455.56;5071748;28;20104;-68
2022/11/07 06:00:17;;;;;;;20.92;12.05;;;;;;;8.61;77.00;98457.47;5071538;28;20066;-68
2022/11/07 06:02:44;;;;;;;18.63;10.40;;;;;;;8.60;76.41;98458.56;5071444;28;20530;-68
2022/11/07 06:05:10;;;;;;;17.02;10.05;;;;;;;8.59;76.65;98457.75;5071308;28;20021;-68
2022/11/07 06:07:37;;;;;;;20.70;10.55;;;;;;;8.60;76.33;98445.72;5071449;28;20025;-68
2022/11/07 06:10:05;;;;;;;15.60;9.13;;;;;;;8.61;76.16;98455.56;5071238;28;20048;-68
2022/11/07 06:12:30;;;;;;;16.92;8.85;;;;;;;8.62;75.98;98449.00;5070997;28;20070;-68
2022/11/07 06:14:56;;;;;;;15.25;8.73;;;;;;;8.64;76.11;98451.44;5070762;28;20024;-68
2022/11/07 06:17:21;;;;;;;14.38;8.55;;;;;;;8.66;76.42;98448.44;5071519;28;20496;-68
2022/11/07 06:19:47;;;;;;;15.50;8.13;;;;;;;8.65;75.96;98450.31;5053318;28;20385;-68
2022/11/07 06:22:12;;;;;;;13.75;7.93;;;;;;;8.64;75.27;98459.63;5070771;28;20021;-69
2022/11/07 06:24:37;;;;;;;12.73;7.40;;;;;;;8.63;75.18;98453.38;5070785;28;20093;-68
2022/11/07 06:27:03;;;;;;;13.90;7.55;;;;;;;8.66;76.29;98456.63;5071106;28;20056;-68
2022/11/07 06:29:28;;;;;;;20.90;9.93;;;;;;;8.67;75.86;98448.13;5071441;28;20060;-68
2022/11/07 06:31:54;;;;;;;19.90;9.93;;;;;;;8.70;75.66;98454.97;5071415;28;20024;-68
2022/11/07 06:34:19;;;;;;;15.02;8.50;;;;;;;8.70;74.99;98446.75;5070854;28;20036;-69
2022/11/07 06:36:44;;;;;;;15.75;8.15;;;;;;;8.72;75.17;98455.50;5071175;28;20154;-68
2022/11/07 06:39:10;;;;;;;13.98;7.18;;;;;;;8.72;75.11;98458.22;5071196;28;20170;-68
2022/11/07 06:41:35;;;;;;;14.68;8.02;;;;;;;8.71;74.39;98471.06;5071252;28;20074;-68
2022/11/07 06:44:01;;;;;;;11.27;6.82;;;;;;;8.71;74.88;98467.53;5071195;28;20419;-68
2022/11/07 06:46:26;;;;;;;10.73;6.70;;;;;;;8.71;74.19;98467.53;5070998;28;20040;-68
2022/11/07 06:48:53;;;;;;;15.88;7.95;;;;;;;8.69;74.85;98483.41;5070940;28;20481;-69
2022/11/07 06:51:18;;;;;;;13.75;7.95;;;;;;;8.71;74.78;98482.00;5071435;28;20032;-68
2022/11/07 06:53:43;;;;;;;22.00;9.50;;;;;;;8.73;74.55;98473.53;5071213;28;20017;-68
2022/11/07 06:56:14;;;;;;;16.60;8.68;;;;;;;8.75;74.03;98488.56;5070373;28;20034;-68
2022/11/07 06:58:40;;;;;;;13.52;7.47;;;;;;;8.77;74.15;98488.25;5070703;28;20028;-68
2022/11/07 07:01:08;;;;;;;11.57;7.10;;;;;;;8.77;74.19;98486.34;5070993;28;20469;-68
2022/11/07 07:03:34;;;;;;;14.23;7.03;;;;;;;8.78;73.65;98495.34;5070933;28;20035;-69
2022/11/07 07:06:06;;;;;;;10.55;7.38;;;;;;;8.78;74.14;98487.16;5070447;28;20452;-69
2022/11/07 07:08:32;;;;;;;13.30;7.22;;;;;;;8.78;73.68;98495.34;5069908;28;20064;-68
2022/11/07 07:11:02;;;;;;;10.88;6.63;;;;;;;8.81;74.07;98489.31;5070386;28;20392;-68
2022/11/07 07:13:28;;;;;;;13.95;7.20;;;;;;;8.83;73.47;98492.59;5052162;28;20035;-68
2022/11/07 07:15:54;;;;;;;11.52;6.82;;;;;;;8.85;73.74;98506.00;5070945;28;20020;-68
2022/11/07 07:18:20;;;;;;;12.05;6.47;;;;;;;8.86;73.32;98505.69;5070170;28;20530;-68
2022/11/07 07:20:50;;;;;;;13.30;6.70;;;;;;;8.87;72.62;98496.41;5070512;28;20032;-68
2022/11/07 07:23:17;;;;;;;11.88;6.90;;;;;;;8.89;72.61;98499.66;5070612;28;20528;-69
2022/11/07 07:25:43;;;;;;;11.20;5.63;;;;;;;8.89;72.63;98499.66;5069986;28;20501;-68
2022/11/07 07:28:08;;;;;;;12.35;6.50;;;;;;;8.92;72.67;98501.03;5069877;28;20029;-68
2022/11/07 07:30:34;;;;;;;10.60;5.43;;;;;;;8.91;71.30;98502.13;5070967;28;20023;-68
2022/11/07 07:32:59;;;;;;;10.50;6.03;;;;;;;8.92;71.04;98514.72;5070554;28;20020;-68
2022/11/07 07:35:24;;;;;;;9.73;5.43;;;;;;;8.91;71.23;98504.88;5070544;28;20031;-68
2022/11/07 07:37:51;;;;;;;15.93;8.90;;;;;;;8.92;71.35;98509.25;5069742;28;20082;-68
2022/11/07 07:40:17;;;;;;;12.73;7.18;;;;;;;8.93;71.42;98516.34;5070047;28;20120;-68
2022/11/07 07:42:42;;;;;;;10.18;6.15;;;;;;;8.94;70.97;98523.44;5070227;28;20055;-68
2022/11/07 07:45:10;;;;;;;11.93;7.55;;;;;;;8.96;70.59;98518.50;5070427;28;20031;-69
2022/11/07 07:47:36;;;;;;;9.45;5.78;;;;;;;8.95;70.07;98525.09;5054932;28;20033;-68
2022/11/07 07:50:01;;;;;;;12.27;6.43;;;;;;;8.95;71.36;98522.34;5050505;28;20029;-68
2022/11/07 07:52:27;;;;;;;13.35;8.55;;;;;;;8.99;71.12;98522.59;5066163;28;20059;-69
2022/11/07 07:54:53;;;;;;;19.90;9.90;;;;;;;9.03;70.63;98531.88;5070564;28;20025;-69
2022/11/07 07:57:18;;;;;;;13.77;7.10;;;;;;;9.05;70.77;98538.66;5071523;28;20032;-68
2022/11/07 07:59:43;;;;;;;13.50;7.70;;;;;;;9.09;70.53;98538.94;5071883;28;20163;-68
2022/11/07 08:02:10;;;;;;;12.73;8.02;;;;;;;9.13;70.82;98534.53;5072486;28;20473;-68
2022/11/07 08:04:36;;;;;;;10.63;5.97;;;;;;;9.17;70.23;98524.63;5072416;28;20028;-68
2022/11/07 08:07:01;;;;;;;8.73;5.03;;;;;;;9.18;69.62;98534.47;5072700;28;20434;-69
2022/11/07 08:09:26;;;;;;;9.55;5.68;;;;;;;9.19;69.46;98544.31;5052833;28;20058;-68
2022/11/07 08:11:52;;;;;;;9.45;5.00;;;;;;;9.23;69.90;98552.78;5070285;28;20024;-68
2022/11/07 08:14:17;;;;;;;9.48;5.10;;;;;;;9.28;69.46;98554.66;5043526;28;20029;-68
2022/11/07 08:16:44;;;;;;;7.88;4.78;;;;;;;9.33;69.02;98551.88;5041840;28;20081;-69
2022/11/07 08:19:09;;;;;;;12.73;5.43;;;;;;;9.38;68.83;98554.59;5036891;28;20029;-69
2022/11/07 08:21:35;;;;;;;8.93;4.70;;;;;;;9.39;69.37;98556.22;5045670;28;20020;-69
2022/11/07 08:24:02;;;;;;;10.60;4.75;;;;;;;9.43;68.59;98562.75;5045545;28;20481;-69
2022/11/07 08:26:27;;;;;;;19.92;9.68;;;;;;;9.45;68.96;98559.72;5045790;28;20053;-68
2022/11/07 08:28:54;;;;;;;9.50;5.22;;;;;;;9.50;67.72;98555.03;5044105;28;20036;-69
2022/11/07 08:31:19;;;;;;;9.45;5.13;;;;;;;9.52;67.34;98561.06;5046001;28;20087;-69
2022/11/07 08:33:45;;;;;;;7.97;4.78;;;;;;;9.55;68.46;98562.38;5042480;28;20664;-71
2022/11/07 08:36:10;;;;;;;10.80;5.70;;;;;;;9.59;67.75;98562.63;5036666;28;20045;-69
2022/11/07 08:38:37;;;;;;;8.35;5.18;;;;;;;9.59;67.18;98568.09;5035879;28;20124;-71
2022/11/07 08:41:03;;;;;;;11.52;5.55;;;;;;;9.59;66.99;98557.13;5043944;28;20032;-69
2022/11/07 08:43:29;;;;;;;8.23;5.18;;;;;;;9.60;66.91;98567.00;5045204;28;20033;-69
2022/11/07 08:45:55;;;;;;;8.32;5.00;;;;;;;9.60;66.65;98567.81;5045755;28;20039;-69
2022/11/07 08:48:21;;;;;;;12.60;5.70;;;;;;;9.60;65.95;98572.47;5044933;28;20041;-71
2022/11/07 08:50:54;;;;;;;10.80;6.03;;;;;;;9.60;67.16;98569.72;5044467;28;20032;-70
2022/11/07 08:53:20;;;;;;;11.35;6.65;;;;;;;9.64;67.17;98577.09;5044570;28;20029;-70
2022/11/07 08:55:46;;;;;;;11.15;6.03;;;;;;;9.71;66.70;98586.91;5041953;28;20040;-70
2022/11/07 08:58:13;;;;;;;14.13;7.70;;;;;;;9.70;66.52;98575.13;5018381;28;20037;-70
2022/11/07 09:00:39;;;;;;;17.58;7.15;;;;;;;9.73;66.34;98581.97;5019065;28;20710;-69
2022/11/07 09:03:06;;;;;;;11.30;7.25;;;;;;;9.74;67.08;98581.66;5044067;28;20024;-69
2022/11/07 09:05:31;;;;;;;9.05;4.95;;;;;;;9.76;66.46;98582.19;5045441;28;20029;-70
2022/11/07 09:07:56;;;;;;;8.88;5.32;;;;;;;9.76;66.74;98590.41;5043338;28;20032;-70
2022/11/07 09:10:22;;;;;;;16.77;7.70;;;;;;;9.76;66.09;98576.72;5044302;28;20455;-68
2022/11/07 09:12:49;;;;;;;17.30;9.90;;;;;;;9.76;67.03;98579.44;5027706;28;20362;-70
2022/11/07 09:15:15;;;;;;;10.52;5.63;;;;;;;9.77;67.13;98599.47;5028733;28;20102;-70
2022/11/07 09:17:40;;;;;;;9.65;5.85;;;;;;;9.76;66.20;98586.88;5036318;28;20213;-71
2022/11/07 09:20:07;;;;;;;13.02;5.53;;;;;;;9.77;66.89;98592.03;5036730;28;20730;-70
2022/11/07 09:22:32;;;;;;;11.05;5.63;;;;;;;9.80;66.29;98599.69;5039031;28;20036;-70
2022/11/07 09:24:57;;;;;;;8.48;4.85;;;;;;;9.80;66.36;98596.94;5042323;28;20661;-68
2022/11/07 09:27:23;;;;;;;8.98;5.22;;;;;;;9.82;65.90;98602.13;5039938;28;20041;-68
2022/11/07 09:29:48;;;;;;;8.77;4.97;;;;;;;9.87;66.45;98604.03;5027646;28;20031;-68
2022/11/07 09:32:13;;;;;;;9.32;5.20;;;;;;;9.89;66.75;98602.63;5044744;28;20055;-69
2022/11/07 09:34:39;;;;;;;8.18;4.95;;;;;;;9.92;66.13;98603.97;5046275;28;20064;-68
2022/11/07 09:37:04;;;;;;;9.38;5.30;;;;;;;9.90;66.35;98598.78;5040207;28;20112;-68
2022/11/07 09:39:30;;;;;;;9.27;5.65;;;;;;;9.91;66.26;98605.88;5036293;28;20087;-68
2022/11/07 09:42:16;;;;;;;15.43;5.28;;;;;;;9.87;66.25;98604.81;5018874;28;20041;-68
2022/11/07 09:44:53;;;;;;;10.43;5.03;;;;;;;9.87;66.17;98613.03;5044946;28;20087;-67
2022/11/07 09:47:22;;;;;;;12.07;5.28;;;;;;;9.83;65.94;98615.56;5044977;28;20028;-68
2022/11/07 09:49:53;;;;;;;8.18;4.93;;;;;;;9.82;65.69;98610.34;5044804;28;20373;-68
2022/11/07 09:52:41;;;;;;;13.82;6.05;;;;;;;9.80;66.01;98616.13;5046260;28;20044;-68
2022/11/07 09:55:34;;;;;;;11.52;7.07;;;;;;;9.78;65.54;98614.78;5045295;28;21816;-68
2022/11/07 09:58:11;;;;;;;8.68;5.35;;;;;;;9.77;65.21;98616.69;5043193;28;20086;-68
2022/11/07 10:00:36;;;;;;;9.05;5.55;;;;;;;9.80;66.61;98613.38;5034568;28;20037;-68
2022/11/07 10:03:02;;;;;;;10.20;5.75;;;;;;;9.85;66.37;98618.00;5031745;28;20114;-68
2022/11/07 10:06:06;;;;;;;10.48;6.30;;;;;;;9.88;66.09;98606.47;5044698;28;20650;-68
2022/11/07 10:08:49;;;;;;;10.52;5.57;;;;;;;9.92;66.35;98612.19;5017428;28;20405;-69
2022/11/07 10:11:43;;;;;;;11.88;7.13;;;;;;;9.97;66.09;98601.19;5044161;28;20029;-69
2022/11/07 10:14:14;;;;;;;14.02;7.97;;;;;;;9.99;66.89;98607.16;5044137;28;20029;-68
2022/11/07 10:17:09;;;;;;;9.95;5.85;;;;;;;10.04;65.88;98604.38;5044713;28;20094;-69
2022/11/07 10:19:47;;;;;;;10.25;5.10;;;;;;;10.06;65.78;98613.13;5040875;28;20117;-68
2022/11/07 10:22:28;;;;;;;10.60;6.07;;;;;;;10.07;66.11;98608.50;5035884;28;20056;-69
2022/11/07 10:25:28;;;;;;;9.80;5.40;;;;;;;10.09;65.98;98609.03;5020577;28;20120;-69
2022/11/07 10:28:11;;;;;;;12.38;6.18;;;;;;;10.15;65.63;98596.91;5046711;28;20411;-69
2022/11/07 10:30:38;;;;;;;9.55;5.68;;;;;;;10.19;65.64;98597.94;5047011;28;20049;-68
2022/11/07 10:33:29;;;;;;;8.82;5.38;;;;;;;10.23;65.65;98596.25;5025283;28;20064;-69
2022/11/07 10:36:00;;;;;;;12.18;6.15;;;;;;;10.27;65.62;98602.78;5044821;28;20568;-70
2022/11/07 10:38:28;;;;;;;10.85;6.05;;;;;;;10.31;65.23;98597.56;5045696;28;20584;-71
2022/11/07 10:40:54;;;;;;;10.60;6.28;;;;;;;10.34;64.85;98596.97;5038966;28;20043;-70
2022/11/07 10:43:22;;;;;;;8.73;5.57;;;;;;;10.36;64.96;98610.38;5035635;28;20033;-69
2022/11/07 10:45:49;;;;;;;9.98;5.45;;;;;;;10.42;65.97;98606.50;5039590;28;20033;-68
2022/11/07 10:48:14;;;;;;;11.38;5.70;;;;;;;10.50;65.13;98605.03;5044620;28;20083;-68
2022/11/07 10:50:49;;;;;;;9.95;5.72;;;;;;;10.58;65.53;98607.13;5044249;28;20056;-69
2022/11/07 10:53:17;;;;;;;9.90;5.75;;;;;;;10.63;65.32;98603.50;5043133;28;20047;-69
2022/11/07 10:55:46;;;;;;;10.32;6.47;;;;;;;10.69;65.47;98614.13;5046057;28;20028;-68
2022/11/07 10:58:33;;;;;;;9.13;5.78;;;;;;;10.76;65.15;98618.47;5044907;28;20036;-69
2022/11/07 11:01:07;;;;;;;10.73;6.15;;;;;;;10.77;64.96;98617.34;5042198;28;20131;-70
2022/11/07 11:03:40;;;;;;;8.40;5.82;;;;;;;10.77;64.96;98625.59;5036554;28;20031;-70
2022/11/07 11:06:29;;;;;;;10.15;6.35;;;;;;;10.79;65.22;98618.69;5035157;28;20025;-71
2022/11/07 11:08:54;;;;;;;14.63;5.73;;;;;;;10.82;64.75;98614.50;5044210;28;20054;-71
2022/11/07 11:11:20;;;;;;;10.65;5.47;;;;;;;10.84;64.08;98609.56;5025644;28;20629;-70
2022/11/07 11:13:46;;;;;;;10.27;5.90;;;;;;;10.85;64.56;98609.28;5044151;28;20500;-70
2022/11/07 11:16:27;;;;;;;8.43;5.45;;;;;;;10.87;63.42;98601.56;5044589;28;20361;-70
2022/11/07 11:18:55;;;;;;;9.80;5.72;;;;;;;10.91;64.21;98612.75;5044254;28;20059;-70
2022/11/07 11:21:21;;;;;;;11.10;6.13;;;;;;;10.95;63.78;98613.81;5045812;28;20040;-69
2022/11/07 11:23:47;;;;;;;9.88;5.55;;;;;;;10.95;64.20;98605.56;5022118;28;20036;-69
2022/11/07 11:26:20;;;;;;;8.98;6.22;;;;;;;11.02;64.38;98610.69;5040053;28;20098;-70
2022/11/07 11:28:54;;;;;;;10.18;5.80;;;;;;;11.08;64.29;98604.03;5044192;28;20111;-70
2022/11/07 11:31:31;;;;;;;9.98;5.90;;;;;;;11.14;64.32;98616.56;5047239;28;21181;-72
2022/11/07 11:34:23;;;;;;;10.88;5.65;;;;;;;11.20;63.77;98624.72;5049443;28;20044;-71
2022/11/07 11:37:17;;;;;;;9.75;6.47;;;;;;;11.23;64.87;98615.91;5055021;28;20716;-72
2022/11/07 11:39:54;;;;;;;9.55;6.30;;;;;;;11.28;65.12;98622.13;5067198;28;20040;-72
2022/11/07 11:42:35;;;;;;;10.60;6.95;;;;;;;11.39;64.07;98619.25;5068077;28;20033;-72
2022/11/07 11:45:14;;;;;;;12.43;6.03;;;;;;;11.43;64.67;98623.03;5068114;28;20028;-72
2022/11/07 11:47:44;;;;;;;8.15;5.53;;;;;;;11.50;63.37;98625.38;5070147;28;20024;-71